Startpagina
METAR-TAF:

METAR-TAF

Vliegvelden :

London Ashford Airport

Lydd, Engeland

breedte: 50-57N, lengte: 000-56E, hoogte: 3 m

Actueel weer

Dit bericht is 26 minuten geleden gemaakt, om 09:50 UTC
Wind 7 kt uit het oostzuidoosten, variërend tussen het oosten en het zuidzuidoosten
Temperatuur 19°C
Vochtigheid 64%
Druk 1029 hPa
Zicht 10 km of meer
Weinig wolken op 3500 ft

METAR: EGMD 120950Z 11007KT 080V150 9999 FEW035 19/12 Q1029

Tijdstip: 11:16 (10:16 UTC)

Verwachting

Dit bericht is 2 uur en het 19 minuten geleden gemaakt, om 07:57 UTC
Verwachting geldig van 12 om 09 UTC tot 12 om 18 UTC
Wind 7 kt uit het oosten
Zicht 10 km of meer
geen wolken onder 1500 m en geen cumulonimbus

TAF: EGMD 120757Z 1209/1218 10007KT CAVOK

Waarnemingen en weersverwachtingen van meer dan 4000 vliegvelden (METAR en TAF).

De beschikbare stations zijn de gele en rode punten op de kaart.

Ga met uw muis naar het station om de naam te zien.

Klik dan om waarnemingen en weersverwachtingen te zien.

kaart wijzigen: klik op de groene knoppen met een zwart kruis om in te zoomen, op de groene knop met een streepje om uit te zoomen of op de groene pijlen voor aangrenzende kaarten.


METAR-TAF: